createdAt,value
2023-03-10T00:01:14.648Z,4.63
2023-03-10T00:03:43.159Z,5.53
2023-03-10T00:06:12.960Z,5.17
2023-03-10T00:08:41.849Z,5.03
2023-03-10T00:11:10.201Z,4.87
2023-03-10T00:13:38.521Z,5.33
2023-03-10T00:16:07.577Z,4.10
2023-03-10T00:18:37.217Z,4.07
2023-03-10T00:21:05.764Z,4.40
2023-03-10T00:23:37.016Z,4.10
2023-03-10T00:26:05.850Z,4.07
2023-03-10T00:28:34.076Z,5.90
2023-03-10T00:31:03.750Z,5.97
2023-03-10T00:33:33.567Z,6.00
2023-03-10T00:36:12.256Z,5.63
2023-03-10T00:38:41.778Z,5.57
2023-03-10T00:41:12.089Z,4.30
2023-03-10T00:43:40.470Z,3.83
2023-03-10T00:46:09.309Z,4.07
2023-03-10T00:48:37.858Z,2.97
2023-03-10T00:51:07.759Z,3.57
2023-03-10T00:53:38.919Z,2.90
2023-03-10T00:56:09.036Z,2.80
2023-03-10T00:58:37.780Z,3.30
2023-03-10T01:01:11.919Z,4.47
2023-03-10T01:03:40.185Z,3.63
2023-03-10T01:06:09.052Z,2.83
2023-03-10T01:08:38.640Z,3.03
2023-03-10T01:11:07.199Z,2.77
2023-03-10T01:13:35.739Z,3.07
2023-03-10T01:16:04.069Z,3.23
2023-03-10T01:18:32.203Z,2.70
2023-03-10T01:21:00.301Z,2.20
2023-03-10T01:23:29.519Z,2.07
2023-03-10T01:25:59.053Z,2.20
2023-03-10T01:28:27.343Z,2.23
2023-03-10T01:30:55.577Z,2.30
2023-03-10T01:33:23.786Z,2.27
2023-03-10T01:35:52.133Z,2.90
2023-03-10T01:38:20.321Z,2.47
2023-03-10T01:40:50.367Z,2.97
2023-03-10T01:43:30.898Z,2.73
2023-03-10T01:46:46.197Z,2.50
2023-03-10T01:49:20.199Z,2.57
2023-03-10T01:51:52.599Z,3.23
2023-03-10T01:54:25.381Z,2.93
2023-03-10T01:56:55.364Z,3.33
2023-03-10T01:59:27.054Z,3.03
2023-03-10T02:01:56.563Z,3.00
2023-03-10T02:04:31.669Z,3.40
2023-03-10T02:07:01.105Z,4.00
2023-03-10T02:09:29.580Z,3.83
2023-03-10T02:11:59.782Z,3.83
2023-03-10T02:14:29.451Z,5.27
2023-03-10T02:16:58.069Z,4.93
2023-03-10T02:19:37.073Z,4.53
2023-03-10T02:22:08.048Z,4.00
2023-03-10T02:24:44.566Z,3.43
2023-03-10T02:27:24.847Z,2.93
2023-03-10T02:29:59.899Z,2.40
2023-03-10T02:32:31.813Z,3.10
2023-03-10T02:35:00.185Z,3.23
2023-03-10T02:37:30.222Z,3.13
2023-03-10T02:39:58.757Z,3.10
2023-03-10T02:42:31.868Z,2.87
2023-03-10T02:45:00.649Z,3.40
2023-03-10T02:47:28.944Z,4.10
2023-03-10T02:49:57.112Z,4.57
2023-03-10T02:52:35.796Z,4.27
2023-03-10T02:55:04.064Z,3.77
2023-03-10T02:57:33.644Z,4.77
2023-03-10T03:00:02.075Z,4.27
2023-03-10T03:02:31.236Z,5.17
2023-03-10T03:04:59.468Z,5.07
2023-03-10T03:07:29.174Z,5.93
2023-03-10T03:09:57.479Z,5.60
2023-03-10T03:12:25.793Z,5.13
2023-03-10T03:14:55.354Z,5.40
2023-03-10T03:17:23.550Z,4.97
2023-03-10T03:19:51.882Z,5.57
2023-03-10T03:22:20.098Z,4.60
2023-03-10T03:24:48.281Z,5.13
2023-03-10T03:27:16.538Z,5.30
2023-03-10T03:29:44.783Z,5.33
2023-03-10T03:32:14.452Z,5.13
2023-03-10T03:34:42.594Z,4.70
2023-03-10T03:37:10.852Z,5.60
2023-03-10T03:39:39.186Z,6.27
2023-03-10T03:42:07.883Z,6.23
2023-03-10T03:44:36.175Z,6.37
2023-03-10T03:47:05.382Z,5.97
2023-03-10T03:49:35.502Z,6.77
2023-03-10T03:52:03.851Z,6.17
2023-03-10T03:54:32.037Z,7.80
2023-03-10T03:57:00.625Z,7.60
2023-03-10T03:59:28.800Z,6.97
2023-03-10T04:01:56.939Z,6.87
2023-03-10T04:04:25.303Z,6.87
2023-03-10T04:06:54.869Z,6.30
2023-03-10T04:09:23.097Z,6.17
2023-03-10T04:11:51.373Z,6.37
2023-03-10T04:14:19.965Z,6.30
2023-03-10T04:16:48.145Z,5.50
2023-03-10T04:19:16.546Z,6.80
2023-03-10T04:21:44.781Z,11.60
2023-03-10T04:24:14.295Z,8.37
2023-03-10T04:26:42.710Z,7.03
2023-03-10T04:29:11.832Z,6.90
2023-03-10T04:31:40.522Z,9.50
2023-03-10T04:34:08.729Z,15.77
2023-03-10T04:36:36.993Z,12.47
2023-03-10T04:39:05.919Z,8.67
2023-03-10T04:41:35.488Z,9.20
2023-03-10T04:44:03.709Z,8.77
2023-03-10T04:46:32.407Z,7.93
2023-03-10T04:49:00.672Z,7.87
2023-03-10T04:51:28.886Z,8.30
2023-03-10T04:53:57.372Z,8.13
2023-03-10T04:56:25.824Z,8.00
2023-03-10T04:58:55.564Z,8.27
2023-03-10T05:01:23.749Z,8.03
2023-03-10T05:03:52.059Z,7.20
2023-03-10T05:06:22.369Z,8.63
2023-03-10T05:08:50.597Z,9.53
2023-03-10T05:11:18.997Z,9.73
2023-03-10T05:13:47.802Z,12.17
2023-03-10T05:16:19.444Z,10.27
2023-03-10T05:18:48.593Z,8.93
2023-03-10T05:21:16.968Z,8.50
2023-03-10T05:23:45.165Z,8.47
2023-03-10T05:26:13.449Z,7.83
2023-03-10T05:28:41.684Z,7.40
2023-03-10T05:31:11.390Z,6.07
2023-03-10T05:33:40.933Z,6.70
2023-03-10T05:36:11.582Z,6.33
2023-03-10T05:38:39.936Z,6.37
2023-03-10T05:41:09.341Z,6.23
2023-03-10T05:43:38.201Z,6.90
2023-03-10T05:46:07.254Z,6.90
2023-03-10T05:48:35.934Z,7.17
2023-03-10T05:51:07.411Z,6.73
2023-03-10T05:53:37.277Z,6.40
2023-03-10T05:56:11.114Z,7.13
2023-03-10T05:58:39.686Z,7.20
2023-03-10T06:01:08.877Z,7.37
2023-03-10T06:03:38.024Z,8.77
2023-03-10T06:06:08.765Z,8.37
2023-03-10T06:08:37.529Z,8.53
2023-03-10T06:11:06.313Z,8.00
2023-03-10T06:13:34.585Z,8.87
2023-03-10T06:16:05.959Z,9.80
2023-03-10T06:18:35.239Z,23.10
2023-03-10T06:21:08.857Z,14.33
2023-03-10T06:23:37.814Z,9.67
2023-03-10T06:26:09.225Z,9.37
2023-03-10T06:28:39.341Z,10.17
2023-03-10T06:31:09.389Z,10.80
2023-03-10T06:33:38.348Z,10.23
2023-03-10T06:36:10.011Z,10.30
2023-03-10T06:38:39.062Z,9.57
2023-03-10T06:41:08.066Z,9.50
2023-03-10T06:43:36.761Z,10.07
2023-03-10T06:46:07.303Z,10.13
2023-03-10T06:48:36.608Z,10.57
2023-03-10T06:51:09.611Z,9.43
2023-03-10T06:53:38.307Z,9.20
2023-03-10T06:56:09.398Z,9.83
2023-03-10T06:58:39.172Z,9.33
2023-03-10T07:01:08.993Z,10.50
2023-03-10T07:03:37.700Z,10.77
2023-03-10T07:06:07.700Z,9.30
2023-03-10T07:08:36.322Z,24.53
2023-03-10T07:11:04.453Z,21.90
2023-03-10T07:13:32.743Z,24.17
2023-03-10T07:16:00.956Z,20.93
2023-03-10T07:18:29.731Z,25.50
2023-03-10T07:20:58.397Z,39.67
2023-03-10T07:23:28.402Z,23.70
2023-03-10T07:25:58.403Z,13.23
2023-03-10T07:28:28.187Z,11.53
2023-03-10T07:30:57.760Z,11.03
2023-03-10T07:33:25.954Z,11.53
2023-03-10T07:35:54.243Z,13.00
2023-03-10T07:38:22.570Z,12.33
2023-03-10T07:40:52.167Z,12.30
2023-03-10T07:43:20.420Z,12.63
2023-03-10T07:45:48.862Z,11.67
2023-03-10T07:48:17.138Z,12.83
2023-03-10T07:50:45.379Z,12.33
2023-03-10T07:53:13.546Z,12.53
2023-03-10T07:55:41.697Z,31.10
2023-03-10T07:58:11.230Z,52.47
2023-03-10T08:00:39.458Z,16.37
2023-03-10T08:03:07.705Z,12.10
2023-03-10T08:05:40.175Z,12.77
2023-03-10T08:08:08.916Z,13.47
2023-03-10T08:10:37.138Z,13.97
2023-03-10T08:13:05.366Z,15.03
2023-03-10T08:15:34.901Z,15.07
2023-03-10T08:18:05.482Z,18.13
2023-03-10T08:20:33.631Z,17.37
2023-03-10T08:23:01.858Z,15.90
2023-03-10T08:25:30.127Z,17.10
2023-03-10T08:27:58.390Z,17.10
2023-03-10T08:30:26.958Z,29.43
2023-03-10T08:32:56.717Z,23.47
2023-03-10T08:35:24.886Z,20.03
2023-03-10T08:37:55.334Z,18.93
2023-03-10T08:40:24.773Z,17.20
2023-03-10T08:42:53.079Z,15.67
2023-03-10T08:45:21.494Z,14.43
2023-03-10T08:47:49.657Z,14.93
2023-03-10T08:50:19.659Z,16.43
2023-03-10T08:52:47.805Z,17.77
2023-03-10T08:55:16.036Z,17.20
2023-03-10T08:57:44.181Z,16.73
2023-03-10T09:00:16.120Z,17.07
2023-03-10T09:02:45.399Z,18.93
2023-03-10T09:05:13.568Z,18.10
2023-03-10T09:07:43.195Z,17.83
2023-03-10T09:10:12.221Z,16.77
2023-03-10T09:12:40.439Z,18.10
2023-03-10T09:15:09.567Z,17.00
2023-03-10T09:17:40.581Z,17.73
2023-03-10T09:20:10.519Z,16.90
2023-03-10T09:22:38.996Z,17.20
2023-03-10T09:25:10.363Z,17.53
2023-03-10T09:27:38.506Z,18.23
2023-03-10T09:30:07.808Z,19.20
2023-03-10T09:32:35.987Z,18.23
2023-03-10T09:35:04.941Z,18.17
2023-03-10T09:37:33.243Z,18.97
2023-03-10T09:40:01.440Z,20.60
2023-03-10T09:42:38.821Z,18.77
2023-03-10T09:45:26.429Z,18.77
2023-03-10T09:48:12.173Z,18.50
2023-03-10T09:50:43.861Z,18.47
2023-03-10T09:53:39.357Z,16.73
2023-03-10T09:56:13.426Z,16.83
2023-03-10T09:58:45.727Z,17.73
2023-03-10T10:01:18.096Z,16.00
2023-03-10T10:03:52.957Z,52.47
2023-03-10T10:06:28.171Z,21.93
2023-03-10T10:09:04.742Z,17.27
2023-03-10T10:11:34.423Z,16.77
2023-03-10T10:14:26.188Z,17.53
2023-03-10T10:17:06.115Z,16.47
2023-03-10T10:19:36.924Z,17.63
2023-03-10T10:22:11.494Z,15.97
2023-03-10T10:24:40.711Z,15.13
2023-03-10T10:27:08.949Z,14.70
2023-03-10T10:29:42.457Z,15.13
2023-03-10T10:32:12.450Z,14.50
2023-03-10T10:34:42.197Z,15.13
2023-03-10T10:37:25.410Z,14.27
2023-03-10T10:39:56.410Z,10.63
2023-03-10T10:42:27.275Z,12.33
2023-03-10T10:44:58.592Z,8.53
2023-03-10T10:47:30.048Z,8.00
2023-03-10T10:50:12.897Z,8.13
2023-03-10T10:52:41.562Z,10.30
2023-03-10T10:55:27.397Z,10.80
2023-03-10T10:58:00.412Z,9.77
2023-03-10T11:00:32.536Z,9.87
2023-03-10T11:03:00.935Z,10.20
2023-03-10T11:05:36.036Z,12.03
2023-03-10T11:08:19.581Z,10.73
2023-03-10T11:10:52.498Z,10.23
2023-03-10T11:13:25.180Z,10.13
2023-03-10T11:16:01.753Z,11.77
2023-03-10T11:18:35.635Z,10.40
2023-03-10T11:21:13.301Z,10.47
2023-03-10T11:23:46.536Z,9.57
2023-03-10T11:26:25.508Z,10.27
2023-03-10T11:28:58.023Z,10.60
2023-03-10T11:31:38.092Z,11.53
2023-03-10T11:34:19.525Z,10.57
2023-03-10T11:36:57.531Z,10.13
2023-03-10T11:39:35.315Z,10.03
2023-03-10T11:42:10.756Z,10.43
2023-03-10T11:44:44.293Z,9.50
2023-03-10T11:47:20.848Z,9.40
2023-03-10T11:49:58.298Z,8.60
2023-03-10T11:52:28.049Z,8.73
2023-03-10T11:55:03.012Z,9.30
2023-03-10T11:57:35.770Z,8.17
2023-03-10T12:00:10.262Z,8.00
2023-03-10T12:02:47.576Z,8.03
2023-03-10T12:05:21.189Z,11.97
2023-03-10T12:07:53.467Z,10.20
2023-03-10T12:10:24.137Z,11.53
2023-03-10T12:12:58.259Z,10.67
2023-03-10T12:15:30.388Z,10.10
2023-03-10T12:18:00.286Z,10.93
2023-03-10T12:20:30.716Z,12.00
2023-03-10T12:23:00.207Z,11.30
2023-03-10T12:25:45.176Z,13.70
2023-03-10T12:28:24.507Z,11.80
2023-03-10T12:30:56.521Z,11.97
2023-03-10T12:33:48.939Z,13.20
2023-03-10T12:36:39.538Z,15.43
2023-03-10T12:39:37.973Z,15.47
2023-03-10T12:42:26.619Z,16.30
2023-03-10T12:45:17.672Z,18.13
2023-03-10T12:47:58.968Z,17.20
2023-03-10T12:50:44.741Z,16.20
2023-03-10T12:53:32.318Z,16.97
2023-03-10T12:56:20.964Z,15.77
2023-03-10T12:58:55.519Z,15.90
2023-03-10T13:01:26.728Z,16.37
2023-03-10T13:03:56.552Z,14.70
2023-03-10T13:06:34.246Z,11.17
2023-03-10T13:09:11.713Z,9.50
2023-03-10T13:11:43.018Z,9.10
2023-03-10T13:14:14.684Z,7.23
2023-03-10T13:16:53.554Z,3.70
2023-03-10T13:19:23.401Z,4.53
2023-03-10T13:21:53.784Z,17.70
2023-03-10T13:24:27.600Z,4.17
2023-03-10T13:27:07.406Z,3.10
2023-03-10T13:29:35.941Z,3.00
2023-03-10T13:32:04.297Z,2.30
2023-03-10T13:34:34.193Z,2.53
2023-03-10T13:37:08.789Z,2.33
2023-03-10T13:39:37.053Z,2.60
2023-03-10T13:42:19.320Z,2.77
2023-03-10T13:44:48.468Z,2.50
2023-03-10T13:47:19.773Z,2.27
2023-03-10T13:49:51.044Z,2.20
2023-03-10T13:52:23.478Z,2.87
2023-03-10T13:54:51.683Z,2.47
2023-03-10T13:57:26.511Z,3.07
2023-03-10T13:59:56.207Z,2.80
2023-03-10T14:02:29.026Z,2.60
2023-03-10T14:04:58.512Z,2.90
2023-03-10T14:07:30.184Z,2.70
2023-03-10T14:10:14.958Z,2.47
2023-03-10T14:12:44.587Z,2.33
2023-03-10T14:15:24.950Z,2.50
2023-03-10T14:18:09.661Z,2.40
2023-03-10T14:20:39.276Z,2.50
2023-03-10T14:23:28.049Z,3.03
2023-03-10T14:25:57.626Z,2.73
2023-03-10T14:28:28.647Z,2.83
2023-03-10T14:30:56.912Z,2.80
2023-03-10T14:33:25.048Z,2.40
2023-03-10T14:35:53.238Z,2.60
2023-03-10T14:38:21.833Z,2.97
2023-03-10T14:40:53.315Z,3.30
2023-03-10T14:43:23.279Z,2.83
2023-03-10T14:45:53.879Z,3.37
2023-03-10T14:48:24.679Z,3.20
2023-03-10T14:50:55.142Z,3.53
2023-03-10T14:53:26.548Z,3.27
2023-03-10T14:55:58.535Z,3.10
2023-03-10T14:58:30.208Z,3.47
2023-03-10T15:00:58.507Z,3.50
2023-03-10T15:03:27.072Z,3.03
2023-03-10T15:05:55.272Z,3.87
2023-03-10T15:08:23.622Z,3.53
2023-03-10T15:10:53.176Z,3.97
2023-03-10T15:13:25.060Z,4.07
2023-03-10T15:15:53.409Z,4.17
2023-03-10T15:18:23.353Z,3.70
2023-03-10T15:20:51.817Z,3.80
2023-03-10T15:23:22.574Z,3.90
2023-03-10T15:25:52.058Z,4.00
2023-03-10T15:28:20.441Z,3.50
2023-03-10T15:30:51.105Z,4.17
2023-03-10T15:33:19.367Z,3.40
2023-03-10T15:35:47.581Z,3.93
2023-03-10T15:38:16.655Z,2.97
2023-03-10T15:40:44.976Z,3.57
2023-03-10T15:43:13.471Z,3.07
2023-03-10T15:45:43.584Z,3.47
2023-03-10T15:48:13.616Z,3.40
2023-03-10T15:50:43.807Z,3.70
2023-03-10T15:53:12.013Z,3.03
2023-03-10T15:55:42.067Z,3.37
2023-03-10T15:58:10.709Z,3.77
2023-03-10T16:00:38.897Z,3.53
2023-03-10T16:03:07.562Z,3.53
2023-03-10T16:05:39.018Z,3.60
2023-03-10T16:08:07.352Z,3.77
2023-03-10T16:10:36.040Z,3.90
2023-03-10T16:13:04.295Z,3.30
2023-03-10T16:15:32.526Z,3.53
2023-03-10T16:18:00.843Z,3.67
2023-03-10T16:20:29.127Z,3.67
2023-03-10T16:22:58.675Z,3.80
2023-03-10T16:25:26.953Z,13.00
2023-03-10T16:27:55.244Z,18.97
2023-03-10T16:30:23.940Z,3.93
2023-03-10T16:32:52.463Z,3.33
2023-03-10T16:35:21.059Z,3.40
2023-03-10T16:37:49.152Z,3.33
2023-03-10T16:40:19.178Z,3.57
2023-03-10T16:42:47.398Z,3.40
2023-03-10T16:45:16.290Z,3.83
2023-03-10T16:47:46.158Z,3.47
2023-03-10T16:50:14.437Z,3.93
2023-03-10T16:52:43.417Z,3.30
2023-03-10T16:55:17.424Z,3.70
2023-03-10T16:57:47.333Z,3.93
2023-03-10T17:00:21.074Z,3.87
2023-03-10T17:02:49.663Z,3.47
2023-03-10T17:05:18.374Z,3.20
2023-03-10T17:07:55.728Z,3.33
2023-03-10T17:10:26.603Z,3.10
2023-03-10T17:12:56.122Z,3.27
2023-03-10T17:15:24.674Z,4.00
2023-03-10T17:17:53.028Z,3.57
2023-03-10T17:20:21.598Z,3.67
2023-03-10T17:22:49.911Z,3.93
2023-03-10T17:25:18.363Z,6.43
2023-03-10T17:27:48.060Z,7.37
2023-03-10T17:30:20.040Z,10.07
2023-03-10T17:32:50.479Z,6.67
2023-03-10T17:35:18.976Z,4.50
2023-03-10T17:37:47.356Z,1.97
2023-03-10T17:40:17.320Z,0.77
2023-03-10T17:42:45.495Z,1.00
2023-03-10T17:45:13.785Z,0.60
2023-03-10T17:47:43.327Z,0.53
2023-03-10T17:50:12.759Z,0.63
2023-03-10T17:52:40.953Z,0.80
2023-03-10T17:55:09.845Z,0.83
2023-03-10T17:57:40.637Z,0.90
2023-03-10T18:00:10.909Z,1.00
2023-03-10T18:02:39.135Z,1.47
2023-03-10T18:05:09.671Z,1.00
2023-03-10T18:07:37.862Z,1.10
2023-03-10T18:10:06.934Z,0.97
2023-03-10T18:12:35.059Z,0.80
2023-03-10T18:15:03.214Z,1.30
2023-03-10T18:17:31.422Z,0.90
2023-03-10T18:20:01.063Z,0.97
2023-03-10T18:22:30.798Z,0.60
2023-03-10T18:25:01.467Z,0.80
2023-03-10T18:27:30.071Z,0.97
2023-03-10T18:29:59.279Z,1.57
2023-03-10T18:32:27.675Z,1.10
2023-03-10T18:34:58.083Z,1.07
2023-03-10T18:37:26.689Z,0.70
2023-03-10T18:39:57.830Z,0.90
2023-03-10T18:42:26.533Z,0.80
2023-03-10T18:44:55.118Z,0.90
2023-03-10T18:47:23.403Z,0.90
2023-03-10T18:49:51.671Z,0.80
2023-03-10T18:52:19.917Z,1.07
2023-03-10T18:54:49.283Z,0.80
2023-03-10T18:57:18.907Z,0.90
2023-03-10T18:59:47.207Z,1.00
2023-03-10T19:02:16.359Z,0.80
2023-03-10T19:04:47.772Z,1.10
2023-03-10T19:07:16.246Z,0.87
2023-03-10T19:09:44.620Z,0.90
2023-03-10T19:12:12.873Z,1.00
2023-03-10T19:14:42.812Z,0.93
2023-03-10T19:17:11.049Z,0.83
2023-03-10T19:19:39.312Z,1.23
2023-03-10T19:22:07.557Z,1.17
2023-03-10T19:24:35.830Z,1.43
2023-03-10T19:27:04.230Z,1.30
2023-03-10T19:29:32.872Z,1.00
2023-03-10T19:32:03.025Z,1.13
2023-03-10T19:34:31.323Z,0.97
2023-03-10T19:36:59.572Z,1.20
2023-03-10T19:39:27.869Z,0.97
2023-03-10T19:41:56.067Z,1.20
2023-03-10T19:44:24.461Z,1.20
2023-03-10T19:46:52.652Z,0.83
2023-03-10T19:49:24.487Z,1.10
2023-03-10T19:51:52.819Z,1.90
2023-03-10T19:54:21.092Z,1.43
2023-03-10T19:56:49.312Z,1.80
2023-03-10T19:59:17.505Z,1.27
2023-03-10T20:01:48.852Z,1.00
2023-03-10T20:04:17.526Z,1.10
2023-03-10T20:06:47.242Z,1.40
2023-03-10T20:09:15.415Z,1.53
2023-03-10T20:11:43.655Z,1.13
2023-03-10T20:14:12.538Z,0.87
2023-03-10T20:16:40.884Z,1.20
2023-03-10T20:19:09.048Z,0.87
2023-03-10T20:21:37.302Z,1.00
2023-03-10T20:24:07.373Z,0.97
2023-03-10T20:26:35.493Z,0.90
2023-03-10T20:29:03.747Z,1.20
2023-03-10T20:31:34.122Z,0.90
2023-03-10T20:34:03.095Z,1.40
2023-03-10T20:36:31.612Z,1.60
2023-03-10T20:38:59.932Z,1.40
2023-03-10T20:41:29.511Z,0.73
2023-03-10T20:43:57.756Z,1.60
2023-03-10T20:46:26.074Z,1.33
2023-03-10T20:48:54.274Z,1.40
2023-03-10T20:51:23.499Z,1.30
2023-03-10T20:53:52.521Z,2.20
2023-03-10T20:56:20.705Z,0.97
2023-03-10T20:58:50.307Z,1.30
2023-03-10T21:01:20.847Z,1.10
2023-03-10T21:03:49.276Z,1.40
2023-03-10T21:06:17.466Z,1.10
2023-03-10T21:08:45.873Z,0.80
2023-03-10T21:11:14.147Z,0.90
2023-03-10T21:13:42.913Z,1.00
2023-03-10T21:16:12.639Z,0.67
2023-03-10T21:18:40.998Z,0.90
2023-03-10T21:21:10.228Z,0.73
2023-03-10T21:23:39.353Z,0.80
2023-03-10T21:26:11.938Z,1.00
2023-03-10T21:28:40.236Z,1.07
2023-03-10T21:31:08.559Z,0.90
2023-03-10T21:33:38.363Z,0.70
2023-03-10T21:36:07.338Z,0.70
2023-03-10T21:38:38.526Z,0.80
2023-03-10T21:41:08.318Z,1.00
2023-03-10T21:43:36.719Z,1.00
2023-03-10T21:46:05.388Z,0.80
2023-03-10T21:48:33.624Z,0.80
2023-03-10T21:51:03.210Z,0.70
2023-03-10T21:53:31.487Z,0.73
2023-03-10T21:56:00.704Z,0.70
2023-03-10T21:58:29.058Z,0.70
2023-03-10T22:00:57.271Z,0.90
2023-03-10T22:03:25.516Z,0.73
2023-03-10T22:05:53.723Z,0.73
2023-03-10T22:08:23.454Z,0.70
2023-03-10T22:10:51.678Z,0.80
2023-03-10T22:13:20.037Z,0.70
2023-03-10T22:15:48.326Z,0.77
2023-03-10T22:18:16.554Z,0.73
2023-03-10T22:20:44.752Z,1.10
2023-03-10T22:23:12.946Z,1.00
2023-03-10T22:25:42.526Z,1.23
2023-03-10T22:28:11.166Z,0.87
2023-03-10T22:30:40.076Z,0.57
2023-03-10T22:33:08.716Z,0.70
2023-03-10T22:35:38.283Z,1.00
2023-03-10T22:38:07.284Z,0.90
2023-03-10T22:40:35.616Z,0.90
2023-03-10T22:43:05.357Z,0.83
2023-03-10T22:45:34.308Z,1.33
2023-03-10T22:48:05.386Z,1.23
2023-03-10T22:50:36.018Z,1.20
2023-03-10T22:53:06.035Z,1.67
2023-03-10T22:55:35.983Z,1.73
2023-03-10T22:58:07.132Z,0.87
2023-03-10T23:00:36.134Z,0.90
2023-03-10T23:03:05.468Z,0.70
2023-03-10T23:05:34.069Z,0.60
2023-03-10T23:08:02.223Z,0.57
2023-03-10T23:10:33.211Z,0.67
2023-03-10T23:13:03.475Z,0.50
2023-03-10T23:15:36.788Z,0.40
2023-03-10T23:18:05.899Z,0.50
2023-03-10T23:20:36.298Z,0.40
2023-03-10T23:23:06.690Z,0.63
2023-03-10T23:25:37.608Z,0.90
2023-03-10T23:28:07.215Z,0.67
2023-03-10T23:30:38.674Z,0.70
2023-03-10T23:33:08.037Z,0.57
2023-03-10T23:35:37.108Z,0.60
2023-03-10T23:38:06.743Z,0.83
2023-03-10T23:40:36.800Z,0.70
2023-03-10T23:43:08.016Z,0.70
2023-03-10T23:45:38.937Z,0.80
2023-03-10T23:48:10.125Z,0.60
2023-03-10T23:50:40.720Z,0.47
2023-03-10T23:53:10.354Z,0.43
2023-03-10T23:55:40.418Z,0.60
2023-03-10T23:58:08.890Z,0.53
